Time;durP1;ratioP1;P1;durP2;ratioP2;P2;SDS_P1;SDS_P2;PMS_P1;PMS_P2;Temp;Humidity;BMP_temperature;BMP_pressure;BME280_temperature;BME280_humidity;BME280_pressure;Samples;Min_cycle;Max_cycle;Signal;HPM_P1;HPM_P2
2023/01/08 00:01:44;;;;;;;7.97;4.10;;;;;;;;;;5103865;27;20126;-67
2023/01/08 00:04:10;;;;;;;7.40;4.20;;;;;;;;;;5098650;27;20376;-67
2023/01/08 00:06:36;;;;;;;7.72;4.28;;;;;;;;;;5100524;27;20146;-67
2023/01/08 00:09:03;;;;;;;7.75;4.35;;;;;;;;;;5101718;28;20089;-67
2023/01/08 00:11:29;;;;;;;10.57;4.28;;;;;;;;;;5101444;27;20060;-67
2023/01/08 00:13:55;;;;;;;7.68;4.65;;;;;;;;;;5102200;27;20040;-67
2023/01/08 00:16:21;;;;;;;8.90;4.22;;;;;;;;;;5100847;27;20040;-67
2023/01/08 00:18:47;;;;;;;7.45;3.60;;;;;;;;;;5101022;27;20391;-67
2023/01/08 00:21:13;;;;;;;7.28;4.00;;;;;;;;;;5100268;28;20035;-67
2023/01/08 00:23:40;;;;;;;7.53;3.75;;;;;;;;;;5101298;27;20130;-67
2023/01/08 00:26:07;;;;;;;6.68;4.00;;;;;;;;;;5099919;27;20050;-67
2023/01/08 00:28:34;;;;;;;9.10;4.05;;;;;;;;;;5100762;27;20144;-67
2023/01/08 00:31:02;;;;;;;5.93;3.55;;;;;;;;;;5100377;28;20469;-67
2023/01/08 00:33:28;;;;;;;10.32;4.43;;;;;;;;;;5101702;27;20036;-67
2023/01/08 00:35:55;;;;;;;9.52;4.25;;;;;;;;;;5102482;28;20055;-67
2023/01/08 00:38:24;;;;;;;8.27;3.60;;;;;;;;;;5098395;28;20043;-68
2023/01/08 00:40:50;;;;;;;6.97;3.53;;;;;;;;;;5101122;27;20065;-67
2023/01/08 00:43:17;;;;;;;7.95;4.00;;;;;;;;;;5101639;27;20063;-67
2023/01/08 00:45:43;;;;;;;8.98;3.85;;;;;;;;;;5096849;27;20051;-67
2023/01/08 00:48:09;;;;;;;7.97;4.07;;;;;;;;;;5097302;28;20731;-67
2023/01/08 00:50:36;;;;;;;7.47;4.10;;;;;;;;;;5102746;27;20047;-67
2023/01/08 00:53:02;;;;;;;7.65;3.42;;;;;;;;;;5102233;27;20490;-67
2023/01/08 00:55:28;;;;;;;9.20;3.60;;;;;;;;;;5101705;27;20438;-66
2023/01/08 00:57:56;;;;;;;5.95;2.38;;;;;;;;;;5101731;28;20050;-67
2023/01/08 01:00:23;;;;;;;7.45;2.47;;;;;;;;;;5096181;28;20044;-67
2023/01/08 01:02:49;;;;;;;4.72;2.03;;;;;;;;;;5100199;27;20095;-67
2023/01/08 01:05:16;;;;;;;9.43;2.65;;;;;;;;;;5100227;27;20044;-67
2023/01/08 01:07:44;;;;;;;6.35;1.80;;;;;;;;;;5101482;28;20036;-67
2023/01/08 01:10:11;;;;;;;11.13;2.25;;;;;;;;;;5096158;27;20040;-67
2023/01/08 01:12:38;;;;;;;7.63;2.08;;;;;;;;;;5100469;27;20051;-67
2023/01/08 01:15:06;;;;;;;8.93;2.25;;;;;;;;;;5102000;28;20458;-67
2023/01/08 01:17:32;;;;;;;7.38;2.13;;;;;;;;;;5094682;27;20031;-67
2023/01/08 01:19:58;;;;;;;10.50;2.55;;;;;;;;;;5102684;28;20183;-67
2023/01/08 01:22:24;;;;;;;10.05;2.10;;;;;;;;;;5093588;27;20040;-66
2023/01/08 01:24:51;;;;;;;7.82;1.90;;;;;;;;;;5105015;28;20051;-67
2023/01/08 01:27:17;;;;;;;12.57;2.15;;;;;;;;;;5106530;28;20075;-67
2023/01/08 01:29:43;;;;;;;7.68;2.38;;;;;;;;;;5106243;28;20497;-67
2023/01/08 01:32:09;;;;;;;11.23;2.58;;;;;;;;;;5098746;28;20040;-67
2023/01/08 01:34:35;;;;;;;6.85;2.28;;;;;;;;;;5104871;28;20472;-67
2023/01/08 01:37:02;;;;;;;9.40;2.63;;;;;;;;;;5097729;28;20104;-67
2023/01/08 01:39:28;;;;;;;10.50;3.35;;;;;;;;;;5106315;27;20135;-67
2023/01/08 01:41:54;;;;;;;9.88;2.72;;;;;;;;;;5106024;28;20458;-67
2023/01/08 01:44:39;;;;;;;11.15;2.80;;;;;;;;;;5103333;28;20061;-67
2023/01/08 01:47:27;;;;;;;10.35;2.30;;;;;;;;;;5095464;27;20048;-67
2023/01/08 01:50:00;;;;;;;15.38;3.20;;;;;;;;;;5096144;28;20044;-67
2023/01/08 01:52:28;;;;;;;12.10;2.70;;;;;;;;;;5097113;28;20049;-67
2023/01/08 01:54:55;;;;;;;10.95;2.30;;;;;;;;;;5107649;28;20043;-67
2023/01/08 01:57:21;;;;;;;10.55;2.35;;;;;;;;;;5105838;28;20060;-67
2023/01/08 01:59:48;;;;;;;5.00;2.28;;;;;;;;;;5105587;28;20034;-67
2023/01/08 02:02:14;;;;;;;10.43;2.78;;;;;;;;;;5105575;28;20448;-67
2023/01/08 02:04:40;;;;;;;13.98;3.03;;;;;;;;;;5105426;28;20038;-67
2023/01/08 02:07:11;;;;;;;10.30;2.63;;;;;;;;;;5098029;28;20043;-67
2023/01/08 02:09:48;;;;;;;9.63;2.42;;;;;;;;;;5105123;28;20042;-67
2023/01/08 02:12:24;;;;;;;9.48;2.80;;;;;;;;;;5095040;28;20343;-67
2023/01/08 02:14:59;;;;;;;9.75;2.50;;;;;;;;;;5095549;28;20077;-67
2023/01/08 02:17:33;;;;;;;8.88;2.10;;;;;;;;;;5104471;28;20048;-67
2023/01/08 02:20:03;;;;;;;6.57;1.98;;;;;;;;;;5105769;28;20093;-67
2023/01/08 02:22:31;;;;;;;13.05;2.53;;;;;;;;;;5096348;28;20074;-67
2023/01/08 02:25:02;;;;;;;13.20;2.47;;;;;;;;;;5109156;28;20043;-67
2023/01/08 02:27:30;;;;;;;14.25;2.72;;;;;;;;;;5106899;28;20043;-67
2023/01/08 02:29:56;;;;;;;15.20;2.30;;;;;;;;;;5105108;28;20059;-67
2023/01/08 02:32:25;;;;;;;12.85;2.00;;;;;;;;;;5105020;28;20395;-67
2023/01/08 02:34:52;;;;;;;12.50;1.92;;;;;;;;;;5106299;28;20391;-67
2023/01/08 02:37:18;;;;;;;13.20;2.03;;;;;;;;;;5105364;28;20212;-67
2023/01/08 02:39:56;;;;;;;18.23;3.10;;;;;;;;;;5105454;28;20039;-67
2023/01/08 02:42:33;;;;;;;17.15;2.92;;;;;;;;;;5085810;28;20153;-68
2023/01/08 02:45:02;;;;;;;16.00;3.00;;;;;;;;;;5066863;28;20071;-67
2023/01/08 02:47:31;;;;;;;15.70;2.67;;;;;;;;;;5066898;28;20212;-67
2023/01/08 02:50:02;;;;;;;22.15;2.92;;;;;;;;;;5085786;28;20092;-67
2023/01/08 02:52:30;;;;;;;14.73;2.75;;;;;;;;;;5084931;28;20047;-67
2023/01/08 02:54:59;;;;;;;19.98;2.47;;;;;;;;;;5086294;28;20040;-67
2023/01/08 02:57:26;;;;;;;14.77;2.60;;;;;;;;;;5089780;28;20111;-67
2023/01/08 02:59:52;;;;;;;18.02;3.45;;;;;;;;;;5089009;28;20077;-67
2023/01/08 03:02:18;;;;;;;15.50;2.92;;;;;;;;;;5088250;28;20046;-67
2023/01/08 03:04:48;;;;;;;23.02;2.65;;;;;;;;;;5070595;28;20044;-67
2023/01/08 03:07:15;;;;;;;20.33;3.10;;;;;;;;;;5088031;28;20036;-67
2023/01/08 03:09:41;;;;;;;17.67;3.22;;;;;;;;;;5088267;28;20672;-67
2023/01/08 03:12:11;;;;;;;18.98;3.65;;;;;;;;;;5088253;28;20609;-67
2023/01/08 03:14:44;;;;;;;19.88;2.47;;;;;;;;;;5069784;28;20044;-67
2023/01/08 03:17:17;;;;;;;15.30;2.80;;;;;;;;;;5090066;28;20047;-67
2023/01/08 03:19:48;;;;;;;20.37;3.23;;;;;;;;;;5088744;28;20056;-68
2023/01/08 03:22:16;;;;;;;21.35;2.75;;;;;;;;;;5088527;28;20044;-67
2023/01/08 03:24:45;;;;;;;16.17;3.13;;;;;;;;;;5070852;28;20360;-67
2023/01/08 03:27:15;;;;;;;17.30;2.92;;;;;;;;;;5070636;28;20069;-67
2023/01/08 03:29:41;;;;;;;13.63;2.22;;;;;;;;;;5090217;28;20479;-67
2023/01/08 03:32:11;;;;;;;16.83;3.00;;;;;;;;;;5070475;28;20068;-67
2023/01/08 03:34:39;;;;;;;22.05;3.17;;;;;;;;;;5087516;28;20093;-67
2023/01/08 03:37:07;;;;;;;34.80;5.50;;;;;;;;;;5087484;28;20122;-67
2023/01/08 03:39:37;;;;;;;17.23;2.63;;;;;;;;;;5089636;28;20384;-67
2023/01/08 03:42:05;;;;;;;16.23;2.55;;;;;;;;;;5106598;28;20108;-67
2023/01/08 03:44:31;;;;;;;15.38;2.58;;;;;;;;;;5106845;28;20036;-67
2023/01/08 03:46:58;;;;;;;13.23;2.92;;;;;;;;;;5109855;27;20079;-67
2023/01/08 03:49:25;;;;;;;20.80;3.78;;;;;;;;;;5108612;28;20483;-67
2023/01/08 03:51:51;;;;;;;25.45;4.18;;;;;;;;;;5101225;28;20051;-67
2023/01/08 03:54:19;;;;;;;20.50;3.13;;;;;;;;;;5107120;27;20031;-67
2023/01/08 03:56:45;;;;;;;13.27;2.70;;;;;;;;;;5110178;28;20075;-67
2023/01/08 03:59:12;;;;;;;16.48;2.72;;;;;;;;;;5108175;28;20052;-67
2023/01/08 04:01:38;;;;;;;16.52;3.20;;;;;;;;;;5081611;28;20071;-67
2023/01/08 04:04:04;;;;;;;17.75;3.22;;;;;;;;;;5098185;27;20055;-67
2023/01/08 04:06:31;;;;;;;13.32;2.97;;;;;;;;;;5107000;28;20058;-67
2023/01/08 04:08:57;;;;;;;15.85;2.60;;;;;;;;;;5108058;28;20080;-67
2023/01/08 04:11:23;;;;;;;16.80;3.92;;;;;;;;;;5100755;28;20039;-67
2023/01/08 04:13:49;;;;;;;11.07;3.47;;;;;;;;;;5100954;28;20039;-67
2023/01/08 04:16:15;;;;;;;13.20;3.08;;;;;;;;;;5107469;27;20046;-67
2023/01/08 04:18:41;;;;;;;8.30;2.67;;;;;;;;;;5107651;28;20042;-67
2023/01/08 04:21:08;;;;;;;10.63;2.85;;;;;;;;;;5109922;28;20046;-67
2023/01/08 04:23:34;;;;;;;12.60;3.10;;;;;;;;;;5107647;27;20146;-67
2023/01/08 04:26:03;;;;;;;15.25;2.75;;;;;;;;;;5106696;28;20044;-67
2023/01/08 04:28:30;;;;;;;14.38;2.38;;;;;;;;;;5107457;27;20058;-67
2023/01/08 04:30:56;;;;;;;9.50;2.85;;;;;;;;;;5107065;27;20124;-67
2023/01/08 04:33:22;;;;;;;9.52;2.45;;;;;;;;;;5098151;27;20040;-67
2023/01/08 04:35:48;;;;;;;9.70;3.17;;;;;;;;;;5102490;27;20540;-67
2023/01/08 04:38:14;;;;;;;13.60;3.05;;;;;;;;;;5099636;28;20071;-67
2023/01/08 04:40:41;;;;;;;8.57;2.58;;;;;;;;;;5109291;27;20932;-67
2023/01/08 04:43:07;;;;;;;10.90;3.05;;;;;;;;;;5107420;28;20043;-67
2023/01/08 04:45:33;;;;;;;15.15;3.85;;;;;;;;;;5106198;28;20092;-67
2023/01/08 04:48:00;;;;;;;11.80;2.80;;;;;;;;;;5096354;28;20043;-67
2023/01/08 04:50:26;;;;;;;10.00;2.63;;;;;;;;;;5098653;28;20180;-67
2023/01/08 04:52:53;;;;;;;13.95;2.28;;;;;;;;;;5101579;28;20048;-67
2023/01/08 04:55:19;;;;;;;8.55;3.15;;;;;;;;;;5108402;28;20046;-67
2023/01/08 04:57:45;;;;;;;6.80;2.35;;;;;;;;;;5107356;28;20877;-67
2023/01/08 05:00:11;;;;;;;9.48;2.70;;;;;;;;;;5097119;28;20044;-67
2023/01/08 05:02:38;;;;;;;11.80;3.08;;;;;;;;;;5105536;28;20119;-67
2023/01/08 05:05:04;;;;;;;7.25;2.38;;;;;;;;;;5106510;27;20437;-67
2023/01/08 05:07:31;;;;;;;9.45;2.38;;;;;;;;;;5105191;27;20043;-67
2023/01/08 05:09:57;;;;;;;6.03;2.53;;;;;;;;;;5103838;28;20051;-67
2023/01/08 05:12:23;;;;;;;10.60;2.38;;;;;;;;;;5107023;27;20058;-67
2023/01/08 05:14:49;;;;;;;11.40;3.13;;;;;;;;;;5105948;28;20044;-67
2023/01/08 05:17:15;;;;;;;11.13;2.80;;;;;;;;;;5106321;28;20062;-67
2023/01/08 05:19:41;;;;;;;12.13;2.83;;;;;;;;;;5105153;28;20036;-67
2023/01/08 05:22:07;;;;;;;7.43;2.78;;;;;;;;;;5092130;28;20075;-67
2023/01/08 05:24:34;;;;;;;12.95;2.78;;;;;;;;;;5108894;27;20147;-67
2023/01/08 05:27:00;;;;;;;7.90;2.47;;;;;;;;;;5092359;28;20083;-67
2023/01/08 05:29:26;;;;;;;13.57;2.90;;;;;;;;;;5106192;27;20044;-67
2023/01/08 05:31:52;;;;;;;11.27;2.60;;;;;;;;;;5106872;28;20047;-67
2023/01/08 05:34:18;;;;;;;10.32;2.72;;;;;;;;;;5107796;28;20089;-67
2023/01/08 05:36:44;;;;;;;13.98;3.72;;;;;;;;;;5107085;28;20126;-67
2023/01/08 05:39:10;;;;;;;10.30;3.03;;;;;;;;;;5104448;28;20047;-67
2023/01/08 05:41:37;;;;;;;9.05;2.60;;;;;;;;;;5106386;28;20055;-67
2023/01/08 05:44:03;;;;;;;10.30;2.42;;;;;;;;;;5087474;28;20043;-67
2023/01/08 05:46:29;;;;;;;11.07;3.10;;;;;;;;;;5104968;28;20131;-67
2023/01/08 05:48:56;;;;;;;11.70;2.78;;;;;;;;;;5104684;28;20066;-67
2023/01/08 05:51:22;;;;;;;8.80;2.92;;;;;;;;;;5107149;28;20043;-67
2023/01/08 05:53:49;;;;;;;9.98;2.97;;;;;;;;;;5105540;28;20122;-67
2023/01/08 05:56:15;;;;;;;12.23;2.95;;;;;;;;;;5106926;28;20119;-67
2023/01/08 05:58:41;;;;;;;11.82;3.10;;;;;;;;;;5089007;28;20043;-67
2023/01/08 06:01:09;;;;;;;10.23;2.92;;;;;;;;;;5106826;28;20108;-67
2023/01/08 06:03:35;;;;;;;5.68;2.33;;;;;;;;;;5105749;28;21739;-67
2023/01/08 06:06:02;;;;;;;9.52;2.65;;;;;;;;;;5105183;28;20039;-67
2023/01/08 06:08:29;;;;;;;9.82;2.45;;;;;;;;;;5085635;28;20475;-67
2023/01/08 06:10:59;;;;;;;9.93;2.75;;;;;;;;;;5104248;28;20073;-67
2023/01/08 06:13:25;;;;;;;8.10;2.50;;;;;;;;;;5104069;28;20040;-67
2023/01/08 06:15:51;;;;;;;10.48;2.47;;;;;;;;;;5105043;28;20057;-67
2023/01/08 06:18:17;;;;;;;11.40;2.72;;;;;;;;;;5106412;28;20036;-67
2023/01/08 06:20:44;;;;;;;8.98;2.97;;;;;;;;;;5107484;28;20097;-67
2023/01/08 06:23:10;;;;;;;11.23;3.50;;;;;;;;;;5087113;28;20058;-67
2023/01/08 06:25:36;;;;;;;10.25;2.45;;;;;;;;;;5103516;28;20058;-67
2023/01/08 06:28:03;;;;;;;11.57;2.70;;;;;;;;;;5104014;28;20043;-67
2023/01/08 06:30:30;;;;;;;9.65;2.10;;;;;;;;;;5102638;28;20054;-67
2023/01/08 06:32:56;;;;;;;10.88;2.00;;;;;;;;;;5105387;28;20686;-67
2023/01/08 06:35:22;;;;;;;12.80;2.97;;;;;;;;;;5086032;28;20082;-67
2023/01/08 06:37:49;;;;;;;10.63;1.98;;;;;;;;;;5067393;28;20048;-67
2023/01/08 06:40:15;;;;;;;7.90;2.70;;;;;;;;;;5106006;28;20434;-67
2023/01/08 06:42:42;;;;;;;9.25;2.03;;;;;;;;;;5104585;28;20035;-68
2023/01/08 06:45:09;;;;;;;10.23;2.63;;;;;;;;;;5101621;28;20040;-66
2023/01/08 06:47:35;;;;;;;9.23;2.17;;;;;;;;;;5106582;28;20043;-67
2023/01/08 06:50:02;;;;;;;10.63;2.30;;;;;;;;;;5105282;28;20137;-68
2023/01/08 06:52:28;;;;;;;14.55;2.88;;;;;;;;;;5092221;28;20398;-67
2023/01/08 06:54:54;;;;;;;9.93;1.98;;;;;;;;;;5105027;28;20119;-67
2023/01/08 06:57:20;;;;;;;14.70;1.83;;;;;;;;;;5104966;28;20062;-67
2023/01/08 06:59:46;;;;;;;9.23;1.98;;;;;;;;;;5107458;28;20032;-67
2023/01/08 07:02:13;;;;;;;11.68;2.20;;;;;;;;;;5106280;28;20044;-67
2023/01/08 07:04:39;;;;;;;14.70;2.15;;;;;;;;;;5103019;28;20039;-67
2023/01/08 07:07:05;;;;;;;12.52;2.88;;;;;;;;;;5104774;28;20036;-67
2023/01/08 07:09:33;;;;;;;9.65;1.70;;;;;;;;;;5104910;28;20212;-67
2023/01/08 07:11:59;;;;;;;12.40;2.47;;;;;;;;;;5105019;28;20036;-67
2023/01/08 07:14:25;;;;;;;14.73;2.33;;;;;;;;;;5105502;28;20040;-67
2023/01/08 07:16:51;;;;;;;13.45;2.22;;;;;;;;;;5093096;28;20062;-67
2023/01/08 07:19:17;;;;;;;14.65;2.35;;;;;;;;;;5092748;28;20047;-67
2023/01/08 07:21:44;;;;;;;11.75;1.83;;;;;;;;;;5098873;28;20093;-67
2023/01/08 07:24:10;;;;;;;10.55;2.45;;;;;;;;;;5104462;28;20036;-67
2023/01/08 07:26:38;;;;;;;12.85;2.25;;;;;;;;;;5104764;28;20059;-67
2023/01/08 07:29:05;;;;;;;13.38;2.78;;;;;;;;;;5102717;28;20253;-67
2023/01/08 07:31:31;;;;;;;10.45;2.33;;;;;;;;;;5092948;28;20070;-67
2023/01/08 07:33:58;;;;;;;20.30;2.70;;;;;;;;;;5104427;28;20046;-67
2023/01/08 07:36:24;;;;;;;13.18;2.70;;;;;;;;;;5104913;28;20048;-67
2023/01/08 07:38:50;;;;;;;13.45;3.30;;;;;;;;;;5104611;27;20038;-67
2023/01/08 07:41:18;;;;;;;11.68;3.33;;;;;;;;;;5108374;28;20044;-67
2023/01/08 07:43:46;;;;;;;10.93;3.35;;;;;;;;;;5106798;28;20036;-67
2023/01/08 07:46:12;;;;;;;12.27;4.30;;;;;;;;;;5107169;28;20040;-67
2023/01/08 07:48:38;;;;;;;11.82;3.78;;;;;;;;;;5107840;28;20546;-67
2023/01/08 07:51:05;;;;;;;12.35;4.18;;;;;;;;;;5108975;28;20046;-68
2023/01/08 07:53:32;;;;;;;13.20;3.60;;;;;;;;;;5108944;27;20105;-67
2023/01/08 07:55:59;;;;;;;10.85;4.38;;;;;;;;;;5103890;27;20076;-67
2023/01/08 07:58:26;;;;;;;10.57;4.30;;;;;;;;;;5108186;27;20049;-67
2023/01/08 08:00:52;;;;;;;12.60;5.22;;;;;;;;;;5097262;28;20140;-67
2023/01/08 08:03:18;;;;;;;13.20;4.82;;;;;;;;;;5110502;28;20040;-67
2023/01/08 08:05:44;;;;;;;17.90;4.72;;;;;;;;;;5098543;28;20544;-66
2023/01/08 08:08:11;;;;;;;10.48;5.05;;;;;;;;;;5108357;28;20108;-66
2023/01/08 08:10:37;;;;;;;9.45;4.53;;;;;;;;;;5094356;28;20051;-66
2023/01/08 08:13:04;;;;;;;15.57;5.35;;;;;;;;;;5099162;28;20075;-66
2023/01/08 08:15:30;;;;;;;15.90;5.13;;;;;;;;;;5104184;28;20050;-66
2023/01/08 08:17:56;;;;;;;11.60;5.63;;;;;;;;;;5101655;28;20390;-66
2023/01/08 08:20:22;;;;;;;14.93;5.40;;;;;;;;;;5096207;27;20149;-66
2023/01/08 08:22:48;;;;;;;14.57;5.25;;;;;;;;;;5106912;28;20502;-66
2023/01/08 08:25:14;;;;;;;19.85;6.18;;;;;;;;;;5105089;27;20173;-66
2023/01/08 08:27:41;;;;;;;11.13;5.03;;;;;;;;;;5102559;27;20063;-66
2023/01/08 08:30:08;;;;;;;12.57;4.78;;;;;;;;;;5101527;28;20201;-66
2023/01/08 08:32:34;;;;;;;15.43;5.47;;;;;;;;;;5103772;28;20048;-66
2023/01/08 08:35:01;;;;;;;14.23;5.38;;;;;;;;;;5103926;27;20663;-66
2023/01/08 08:37:27;;;;;;;8.55;3.90;;;;;;;;;;5105845;28;20048;-69
2023/01/08 08:39:53;;;;;;;18.45;4.70;;;;;;;;;;5102478;28;20436;-66
2023/01/08 08:42:19;;;;;;;11.02;3.72;;;;;;;;;;5107525;28;20301;-67
2023/01/08 08:44:45;;;;;;;15.13;3.70;;;;;;;;;;5106813;28;20051;-67
2023/01/08 08:47:12;;;;;;;15.25;4.85;;;;;;;;;;5103716;28;20181;-68
2023/01/08 08:49:38;;;;;;;12.00;3.78;;;;;;;;;;5103800;28;20051;-65
2023/01/08 08:52:05;;;;;;;10.52;4.10;;;;;;;;;;5104345;28;20044;-66
2023/01/08 08:54:31;;;;;;;10.98;3.75;;;;;;;;;;5107776;28;20044;-66
2023/01/08 08:56:57;;;;;;;13.02;4.32;;;;;;;;;;5105234;28;20054;-66
2023/01/08 08:59:23;;;;;;;13.23;3.60;;;;;;;;;;5105918;28;20045;-66
2023/01/08 09:01:49;;;;;;;15.00;3.55;;;;;;;;;;5101951;28;20036;-66
2023/01/08 09:04:15;;;;;;;14.23;3.65;;;;;;;;;;5105301;27;20087;-66
2023/01/08 09:06:42;;;;;;;12.98;3.55;;;;;;;;;;5104839;27;20147;-66
2023/01/08 09:09:08;;;;;;;20.25;3.60;;;;;;;;;;5107551;27;20036;-66
2023/01/08 09:11:34;;;;;;;16.05;4.03;;;;;;;;;;5106615;28;20405;-65
2023/01/08 09:14:00;;;;;;;9.32;2.95;;;;;;;;;;5104296;27;20384;-65
2023/01/08 09:16:26;;;;;;;9.57;2.88;;;;;;;;;;5101179;27;20111;-69
2023/01/08 09:18:53;;;;;;;16.10;3.42;;;;;;;;;;5096248;28;20055;-81
2023/01/08 09:21:19;;;;;;;11.15;2.90;;;;;;;;;;5107059;28;20036;-82
2023/01/08 09:23:47;;;;;;;10.43;2.40;;;;;;;;;;5082164;28;21251;-65
2023/01/08 09:26:14;;;;;;;10.27;2.65;;;;;;;;;;5104606;28;20100;-66
2023/01/08 09:28:40;;;;;;;14.13;3.05;;;;;;;;;;5106103;27;20035;-66
2023/01/08 09:31:06;;;;;;;13.85;2.60;;;;;;;;;;5105692;28;20062;-66
2023/01/08 09:33:32;;;;;;;16.08;3.10;;;;;;;;;;5103417;28;20051;-66
2023/01/08 09:35:58;;;;;;;9.85;2.42;;;;;;;;;;5105798;28;20120;-66
2023/01/08 09:38:24;;;;;;;15.65;4.00;;;;;;;;;;5106096;28;20040;-66
2023/01/08 09:40:51;;;;;;;18.67;4.10;;;;;;;;;;5104445;28;20417;-66
2023/01/08 09:43:19;;;;;;;6.45;2.60;;;;;;;;;;5106355;28;20042;-66
2023/01/08 09:45:48;;;;;;;14.10;3.50;;;;;;;;;;5104918;28;20063;-65
2023/01/08 09:48:16;;;;;;;15.10;3.42;;;;;;;;;;5105638;28;20130;-66
2023/01/08 09:50:44;;;;;;;9.02;2.45;;;;;;;;;;5104322;28;20043;-65
2023/01/08 09:53:13;;;;;;;13.68;2.75;;;;;;;;;;5090442;28;20036;-65
2023/01/08 09:55:39;;;;;;;10.25;3.30;;;;;;;;;;5104614;28;20100;-65
2023/01/08 09:58:13;;;;;;;10.25;2.92;;;;;;;;;;5103975;28;20043;-65
2023/01/08 10:00:39;;;;;;;15.88;3.38;;;;;;;;;;5104458;28;20131;-66
2023/01/08 10:03:06;;;;;;;6.30;2.13;;;;;;;;;;5106692;28;20039;-65
2023/01/08 10:05:32;;;;;;;16.42;2.50;;;;;;;;;;5096057;28;20060;-64
2023/01/08 10:07:59;;;;;;;11.45;2.30;;;;;;;;;;5091936;28;20044;-64
2023/01/08 10:10:27;;;;;;;14.40;2.50;;;;;;;;;;5104879;28;20521;-65
2023/01/08 10:12:54;;;;;;;12.50;3.38;;;;;;;;;;5105869;28;20081;-65
2023/01/08 10:15:21;;;;;;;11.98;3.15;;;;;;;;;;5094297;28;20043;-65
2023/01/08 10:17:51;;;;;;;10.88;2.20;;;;;;;;;;5082699;28;20054;-65
2023/01/08 10:20:19;;;;;;;12.43;2.60;;;;;;;;;;5104885;28;20089;-65
2023/01/08 10:22:46;;;;;;;12.25;2.35;;;;;;;;;;5104402;28;20468;-64
2023/01/08 10:25:16;;;;;;;14.70;2.72;;;;;;;;;;5105816;28;20040;-65
2023/01/08 10:27:49;;;;;;;10.98;3.22;;;;;;;;;;5105307;28;20406;-64
2023/01/08 10:30:18;;;;;;;12.30;2.70;;;;;;;;;;5104355;28;20129;-64
2023/01/08 10:32:47;;;;;;;13.98;3.08;;;;;;;;;;5103961;28;20039;-64
2023/01/08 10:35:17;;;;;;;16.75;2.40;;;;;;;;;;5104196;28;20047;-64
2023/01/08 10:37:44;;;;;;;17.35;3.40;;;;;;;;;;5103810;28;20043;-65
2023/01/08 10:40:17;;;;;;;12.23;2.72;;;;;;;;;;5103839;28;20040;-65
2023/01/08 10:42:44;;;;;;;15.13;2.50;;;;;;;;;;5103369;28;20108;-65
2023/01/08 10:45:19;;;;;;;13.25;2.70;;;;;;;;;;5104290;28;20064;-65
2023/01/08 10:47:47;;;;;;;13.10;2.70;;;;;;;;;;5101524;28;20066;-65
2023/01/08 10:50:18;;;;;;;12.50;2.33;;;;;;;;;;5100895;28;20038;-65
2023/01/08 10:52:52;;;;;;;10.30;2.40;;;;;;;;;;5103539;28;20462;-65
2023/01/08 10:55:18;;;;;;;9.38;2.25;;;;;;;;;;5103197;28;20092;-65
2023/01/08 10:57:52;;;;;;;11.95;2.75;;;;;;;;;;5103263;28;20432;-70
2023/01/08 11:00:23;;;;;;;19.50;3.03;;;;;;;;;;5102884;28;20500;-65
2023/01/08 11:02:49;;;;;;;20.10;3.45;;;;;;;;;;5104385;28;20046;-65
2023/01/08 11:05:16;;;;;;;11.07;2.50;;;;;;;;;;5103912;28;20578;-65
2023/01/08 11:07:42;;;;;;;12.25;2.47;;;;;;;;;;5104518;28;20036;-65
2023/01/08 11:10:27;;;;;;;12.30;2.38;;;;;;;;;;5104626;28;20067;-65
2023/01/08 11:12:55;;;;;;;13.00;2.65;;;;;;;;;;5098367;28;20126;-65
2023/01/08 11:15:21;;;;;;;10.80;2.22;;;;;;;;;;5108326;28;20047;-65
2023/01/08 11:17:47;;;;;;;15.07;2.88;;;;;;;;;;5109456;27;20392;-65
2023/01/08 11:20:20;;;;;;;13.82;2.58;;;;;;;;;;5101143;28;20147;-66
2023/01/08 11:22:46;;;;;;;9.45;2.50;;;;;;;;;;5107395;27;20411;-66
2023/01/08 11:25:13;;;;;;;15.35;2.55;;;;;;;;;;5095658;28;20040;-65
2023/01/08 11:27:42;;;;;;;14.75;3.67;;;;;;;;;;5108969;28;20122;-65
2023/01/08 11:30:13;;;;;;;13.57;2.30;;;;;;;;;;5098421;28;20608;-66
2023/01/08 11:32:51;;;;;;;13.68;2.42;;;;;;;;;;5107790;28;20096;-67
2023/01/08 11:35:20;;;;;;;11.52;2.10;;;;;;;;;;5108516;27;20445;-65
2023/01/08 11:37:49;;;;;;;10.30;2.63;;;;;;;;;;5107685;28;20049;-65
2023/01/08 11:40:18;;;;;;;14.90;2.53;;;;;;;;;;5097612;28;20394;-64
2023/01/08 11:43:01;;;;;;;17.02;3.53;;;;;;;;;;5108523;27;20055;-67
2023/01/08 11:45:37;;;;;;;10.40;2.17;;;;;;;;;;5107819;28;20387;-64
2023/01/08 11:48:12;;;;;;;16.08;2.95;;;;;;;;;;5109233;28;20035;-64
2023/01/08 11:50:54;;;;;;;11.90;2.47;;;;;;;;;;5108507;27;20355;-65
2023/01/08 11:53:22;;;;;;;12.88;2.42;;;;;;;;;;5105869;27;21044;-64
2023/01/08 11:55:52;;;;;;;19.83;3.38;;;;;;;;;;5108563;28;20032;-65
2023/01/08 11:58:30;;;;;;;12.57;3.70;;;;;;;;;;5097968;28;20057;-65
2023/01/08 12:00:59;;;;;;;16.50;2.75;;;;;;;;;;5095595;28;20434;-65
2023/01/08 12:03:29;;;;;;;12.07;2.63;;;;;;;;;;5108561;28;20483;-65
2023/01/08 12:06:01;;;;;;;18.90;3.88;;;;;;;;;;5109086;27;21398;-65
2023/01/08 12:08:33;;;;;;;15.20;2.90;;;;;;;;;;5107618;28;20039;-65
2023/01/08 12:11:13;;;;;;;12.45;2.90;;;;;;;;;;5108969;28;20035;-65
2023/01/08 12:13:49;;;;;;;17.27;3.45;;;;;;;;;;5107514;28;20062;-65
2023/01/08 12:16:18;;;;;;;16.05;3.15;;;;;;;;;;5098221;28;20100;-65
2023/01/08 12:19:01;;;;;;;15.38;3.83;;;;;;;;;;5108403;28;20399;-65
2023/01/08 12:21:32;;;;;;;11.88;3.08;;;;;;;;;;5098124;28;20546;-65
2023/01/08 12:24:05;;;;;;;13.27;2.97;;;;;;;;;;5096480;28;20088;-65
2023/01/08 12:26:49;;;;;;;14.02;3.10;;;;;;;;;;5100821;28;20036;-65
2023/01/08 12:29:24;;;;;;;13.95;2.95;;;;;;;;;;5108402;27;20039;-65
2023/01/08 12:32:09;;;;;;;11.55;3.38;;;;;;;;;;5106265;27;20564;-65
2023/01/08 12:34:43;;;;;;;19.05;4.07;;;;;;;;;;5100181;28;20530;-65
2023/01/08 12:37:14;;;;;;;17.23;2.80;;;;;;;;;;5108283;27;20044;-65
2023/01/08 12:39:46;;;;;;;11.48;2.30;;;;;;;;;;5100577;28;20047;-65
2023/01/08 12:42:16;;;;;;;16.52;2.85;;;;;;;;;;5106191;28;20058;-65
2023/01/08 12:44:43;;;;;;;15.55;3.13;;;;;;;;;;5108422;28;20399;-65
2023/01/08 12:47:13;;;;;;;14.63;3.25;;;;;;;;;;5107401;28;20069;-65
2023/01/08 12:49:45;;;;;;;13.13;3.45;;;;;;;;;;5100238;28;20123;-66
2023/01/08 12:52:14;;;;;;;11.15;2.78;;;;;;;;;;5101221;28;20097;-65
2023/01/08 12:54:49;;;;;;;14.50;2.92;;;;;;;;;;5107034;28;20043;-65
2023/01/08 12:57:19;;;;;;;16.08;3.42;;;;;;;;;;5105532;28;20109;-66
2023/01/08 12:59:53;;;;;;;15.38;2.90;;;;;;;;;;5107662;28;20065;-66
2023/01/08 13:02:35;;;;;;;17.80;3.60;;;;;;;;;;5107625;28;20040;-65
2023/01/08 13:05:12;;;;;;;13.85;3.47;;;;;;;;;;5096043;28;20512;-65
2023/01/08 13:07:43;;;;;;;19.85;3.40;;;;;;;;;;5095082;28;20093;-66
2023/01/08 13:10:19;;;;;;;10.38;3.40;;;;;;;;;;5106172;28;20102;-65
2023/01/08 13:12:50;;;;;;;16.02;3.85;;;;;;;;;;5107377;28;20483;-65
2023/01/08 13:15:24;;;;;;;15.25;3.50;;;;;;;;;;5106851;28;20092;-65
2023/01/08 13:17:51;;;;;;;17.88;3.78;;;;;;;;;;5106129;28;20070;-65
2023/01/08 13:20:26;;;;;;;14.02;3.72;;;;;;;;;;5107527;28;20047;-65
2023/01/08 13:22:55;;;;;;;15.88;3.33;;;;;;;;;;5094490;28;20044;-65
2023/01/08 13:25:21;;;;;;;9.65;3.10;;;;;;;;;;5106522;28;20051;-65
2023/01/08 13:27:47;;;;;;;16.05;3.65;;;;;;;;;;5107255;28;20043;-65
2023/01/08 13:30:32;;;;;;;17.10;2.90;;;;;;;;;;5100049;28;20047;-65
2023/01/08 13:32:58;;;;;;;15.95;3.33;;;;;;;;;;5092178;28;20507;-66
2023/01/08 13:35:25;;;;;;;10.00;3.10;;;;;;;;;;5092624;28;20480;-65
2023/01/08 13:37:52;;;;;;;10.55;3.03;;;;;;;;;;5105272;28;20380;-65
2023/01/08 13:40:39;;;;;;;16.17;3.20;;;;;;;;;;5095225;28;20075;-66
2023/01/08 13:43:06;;;;;;;15.10;3.33;;;;;;;;;;5104823;28;20063;-65
2023/01/08 13:45:32;;;;;;;14.75;3.20;;;;;;;;;;5105693;28;20356;-66
2023/01/08 13:48:00;;;;;;;19.17;3.42;;;;;;;;;;5091700;28;20060;-65
2023/01/08 13:50:28;;;;;;;15.23;3.75;;;;;;;;;;5095207;28;20495;-65
2023/01/08 13:52:57;;;;;;;17.75;3.58;;;;;;;;;;5089894;28;20040;-65
2023/01/08 13:55:29;;;;;;;17.25;3.38;;;;;;;;;;5106622;28;20110;-65
2023/01/08 13:57:59;;;;;;;15.50;3.20;;;;;;;;;;5092348;28;20525;-65
2023/01/08 14:00:44;;;;;;;14.32;2.88;;;;;;;;;;5101959;28;20063;-65
2023/01/08 14:03:26;;;;;;;10.40;3.13;;;;;;;;;;5104321;28;20097;-65
2023/01/08 14:05:53;;;;;;;16.80;3.20;;;;;;;;;;5094341;28;20055;-65
2023/01/08 14:08:25;;;;;;;11.27;2.83;;;;;;;;;;5105154;28;20035;-66
2023/01/08 14:10:53;;;;;;;12.73;3.83;;;;;;;;;;5104738;28;20039;-65
2023/01/08 14:13:22;;;;;;;8.73;2.60;;;;;;;;;;5105581;28;20074;-65
2023/01/08 14:15:48;;;;;;;11.85;2.28;;;;;;;;;;5106104;28;20036;-65
2023/01/08 14:18:14;;;;;;;16.40;4.15;;;;;;;;;;5104780;28;20047;-65
2023/01/08 14:20:42;;;;;;;15.63;3.20;;;;;;;;;;5104662;28;20036;-65
2023/01/08 14:23:12;;;;;;;14.57;3.83;;;;;;;;;;5104980;28;20039;-65
2023/01/08 14:25:39;;;;;;;11.65;3.28;;;;;;;;;;5106069;28;20075;-65
2023/01/08 14:28:06;;;;;;;15.45;2.70;;;;;;;;;;5104578;28;20058;-65
2023/01/08 14:30:32;;;;;;;12.85;2.97;;;;;;;;;;5091514;28;20086;-65
2023/01/08 14:32:59;;;;;;;13.93;2.88;;;;;;;;;;5093681;28;20111;-65
2023/01/08 14:35:29;;;;;;;13.20;3.70;;;;;;;;;;5098123;28;20452;-65
2023/01/08 14:37:55;;;;;;;11.70;2.63;;;;;;;;;;5106003;28;20130;-65
2023/01/08 14:40:28;;;;;;;8.05;2.67;;;;;;;;;;5106413;28;20094;-65